sensor_id;sensor_type;location;lat;lon;timestamp;P1;durP1;ratioP1;P2;durP2;ratioP2
15624;SDS011;7912;51.376;6.126;2022-12-18T00:02:01;27.43;;;17.73;;
15624;SDS011;7912;51.376;6.126;2022-12-18T00:04:28;27.03;;;16.77;;
15624;SDS011;7912;51.376;6.126;2022-12-18T00:06:56;26.70;;;16.97;;
15624;SDS011;7912;51.376;6.126;2022-12-18T00:09:24;24.37;;;15.30;;
15624;SDS011;7912;51.376;6.126;2022-12-18T00:12:04;29.20;;;16.73;;
15624;SDS011;7912;51.376;6.126;2022-12-18T00:14:41;23.67;;;15.30;;
15624;SDS011;7912;51.376;6.126;2022-12-18T00:17:08;29.33;;;17.43;;
15624;SDS011;7912;51.376;6.126;2022-12-18T00:19:36;29.17;;;16.53;;
15624;SDS011;7912;51.376;6.126;2022-12-18T00:22:03;26.23;;;16.00;;
15624;SDS011;7912;51.376;6.126;2022-12-18T00:24:31;27.53;;;17.33;;
15624;SDS011;7912;51.376;6.126;2022-12-18T00:26:58;24.03;;;16.47;;
15624;SDS011;7912;51.376;6.126;2022-12-18T00:29:25;24.77;;;16.20;;
15624;SDS011;7912;51.376;6.126;2022-12-18T00:31:52;25.60;;;17.83;;
15624;SDS011;7912;51.376;6.126;2022-12-18T00:34:20;26.57;;;16.47;;
15624;SDS011;7912;51.376;6.126;2022-12-18T00:36:47;24.83;;;17.63;;
15624;SDS011;7912;51.376;6.126;2022-12-18T00:39:15;24.23;;;15.73;;
15624;SDS011;7912;51.376;6.126;2022-12-18T00:41:42;24.80;;;16.40;;
15624;SDS011;7912;51.376;6.126;2022-12-18T00:44:28;24.57;;;15.73;;
15624;SDS011;7912;51.376;6.126;2022-12-18T00:46:55;25.57;;;16.77;;
15624;SDS011;7912;51.376;6.126;2022-12-18T00:49:23;25.37;;;16.97;;
15624;SDS011;7912;51.376;6.126;2022-12-18T00:51:50;24.43;;;16.20;;
15624;SDS011;7912;51.376;6.126;2022-12-18T00:54:17;25.83;;;16.03;;
15624;SDS011;7912;51.376;6.126;2022-12-18T00:56:45;26.87;;;16.70;;
15624;SDS011;7912;51.376;6.126;2022-12-18T00:59:15;24.00;;;15.53;;
15624;SDS011;7912;51.376;6.126;2022-12-18T01:01:44;22.83;;;14.93;;
15624;SDS011;7912;51.376;6.126;2022-12-18T01:04:14;24.93;;;15.67;;
15624;SDS011;7912;51.376;6.126;2022-12-18T01:06:42;28.80;;;15.93;;
15624;SDS011;7912;51.376;6.126;2022-12-18T01:09:10;26.63;;;16.10;;
15624;SDS011;7912;51.376;6.126;2022-12-18T01:11:37;23.87;;;15.33;;
15624;SDS011;7912;51.376;6.126;2022-12-18T01:14:04;24.77;;;15.40;;
15624;SDS011;7912;51.376;6.126;2022-12-18T01:16:32;26.93;;;15.43;;
15624;SDS011;7912;51.376;6.126;2022-12-18T01:19:00;24.67;;;14.70;;
15624;SDS011;7912;51.376;6.126;2022-12-18T01:21:27;23.47;;;15.07;;
15624;SDS011;7912;51.376;6.126;2022-12-18T01:23:56;19.77;;;13.27;;
15624;SDS011;7912;51.376;6.126;2022-12-18T01:26:24;25.27;;;15.57;;
15624;SDS011;7912;51.376;6.126;2022-12-18T01:28:54;22.93;;;14.93;;
15624;SDS011;7912;51.376;6.126;2022-12-18T01:31:26;22.77;;;15.07;;
15624;SDS011;7912;51.376;6.126;2022-12-18T01:33:57;24.27;;;14.67;;
15624;SDS011;7912;51.376;6.126;2022-12-18T01:36:28;23.37;;;14.87;;
15624;SDS011;7912;51.376;6.126;2022-12-18T01:38:59;24.73;;;15.23;;
15624;SDS011;7912;51.376;6.126;2022-12-18T01:41:36;23.90;;;13.67;;
15624;SDS011;7912;51.376;6.126;2022-12-18T01:47:44;22.63;;;14.80;;
15624;SDS011;7912;51.376;6.126;2022-12-18T01:50:22;20.93;;;13.17;;
15624;SDS011;7912;51.376;6.126;2022-12-18T01:53:02;24.57;;;14.40;;
15624;SDS011;7912;51.376;6.126;2022-12-18T01:55:41;20.93;;;13.73;;
15624;SDS011;7912;51.376;6.126;2022-12-18T01:58:15;19.87;;;13.03;;
15624;SDS011;7912;51.376;6.126;2022-12-18T02:00:43;19.50;;;13.20;;
15624;SDS011;7912;51.376;6.126;2022-12-18T02:03:11;22.03;;;14.37;;
15624;SDS011;7912;51.376;6.126;2022-12-18T02:05:42;21.27;;;13.57;;
15624;SDS011;7912;51.376;6.126;2022-12-18T02:09:19;20.80;;;14.23;;
15624;SDS011;7912;51.376;6.126;2022-12-18T02:17:11;21.10;;;13.60;;
15624;SDS011;7912;51.376;6.126;2022-12-18T02:22:46;21.53;;;13.53;;
15624;SDS011;7912;51.376;6.126;2022-12-18T02:29:03;21.13;;;12.73;;
15624;SDS011;7912;51.376;6.126;2022-12-18T02:32:12;20.03;;;13.17;;
15624;SDS011;7912;51.376;6.126;2022-12-18T02:34:37;23.07;;;14.60;;
15624;SDS011;7912;51.376;6.126;2022-12-18T02:37:08;22.57;;;13.47;;
15624;SDS011;7912;51.376;6.126;2022-12-18T02:39:42;20.43;;;13.03;;
15624;SDS011;7912;51.376;6.126;2022-12-18T02:42:12;20.63;;;12.83;;
15624;SDS011;7912;51.376;6.126;2022-12-18T02:44:44;23.33;;;13.93;;
15624;SDS011;7912;51.376;6.126;2022-12-18T02:47:15;21.43;;;13.47;;
15624;SDS011;7912;51.376;6.126;2022-12-18T02:58:52;20.43;;;13.67;;
15624;SDS011;7912;51.376;6.126;2022-12-18T03:01:45;21.83;;;11.70;;
15624;SDS011;7912;51.376;6.126;2022-12-18T03:04:29;21.47;;;12.60;;
15624;SDS011;7912;51.376;6.126;2022-12-18T03:07:42;21.40;;;13.20;;
15624;SDS011;7912;51.376;6.126;2022-12-18T03:10:25;20.80;;;13.60;;
15624;SDS011;7912;51.376;6.126;2022-12-18T03:13:04;19.43;;;12.43;;
15624;SDS011;7912;51.376;6.126;2022-12-18T03:15:38;20.17;;;13.43;;
15624;SDS011;7912;51.376;6.126;2022-12-18T03:18:17;19.80;;;13.30;;
15624;SDS011;7912;51.376;6.126;2022-12-18T03:20:51;20.50;;;12.83;;
15624;SDS011;7912;51.376;6.126;2022-12-18T03:23:24;20.50;;;13.37;;
15624;SDS011;7912;51.376;6.126;2022-12-18T03:25:57;22.40;;;13.03;;
15624;SDS011;7912;51.376;6.126;2022-12-18T03:28:33;18.40;;;12.63;;
15624;SDS011;7912;51.376;6.126;2022-12-18T03:31:07;21.50;;;13.37;;
15624;SDS011;7912;51.376;6.126;2022-12-18T03:33:42;20.13;;;12.70;;
15624;SDS011;7912;51.376;6.126;2022-12-18T03:36:18;19.33;;;12.73;;
15624;SDS011;7912;51.376;6.126;2022-12-18T03:38:45;20.10;;;12.70;;
15624;SDS011;7912;51.376;6.126;2022-12-18T03:43:48;21.80;;;12.37;;
15624;SDS011;7912;51.376;6.126;2022-12-18T03:52:40;20.27;;;12.33;;
15624;SDS011;7912;51.376;6.126;2022-12-18T03:55:34;21.23;;;12.53;;
15624;SDS011;7912;51.376;6.126;2022-12-18T03:58:03;21.17;;;13.30;;
15624;SDS011;7912;51.376;6.126;2022-12-18T04:00:35;20.63;;;12.73;;
15624;SDS011;7912;51.376;6.126;2022-12-18T04:03:03;20.60;;;13.43;;
15624;SDS011;7912;51.376;6.126;2022-12-18T04:05:32;20.53;;;13.07;;
15624;SDS011;7912;51.376;6.126;2022-12-18T04:08:01;18.73;;;12.70;;
15624;SDS011;7912;51.376;6.126;2022-12-18T04:10:29;17.00;;;12.40;;
15624;SDS011;7912;51.376;6.126;2022-12-18T04:12:57;22.57;;;13.30;;
15624;SDS011;7912;51.376;6.126;2022-12-18T04:15:25;21.33;;;13.73;;
15624;SDS011;7912;51.376;6.126;2022-12-18T04:17:52;20.50;;;13.07;;
15624;SDS011;7912;51.376;6.126;2022-12-18T04:20:19;21.33;;;12.60;;
15624;SDS011;7912;51.376;6.126;2022-12-18T04:22:47;19.20;;;12.43;;
15624;SDS011;7912;51.376;6.126;2022-12-18T04:25:14;20.93;;;13.93;;
15624;SDS011;7912;51.376;6.126;2022-12-18T04:27:41;20.53;;;13.50;;
15624;SDS011;7912;51.376;6.126;2022-12-18T04:30:09;19.67;;;13.27;;
15624;SDS011;7912;51.376;6.126;2022-12-18T04:32:37;18.30;;;12.47;;
15624;SDS011;7912;51.376;6.126;2022-12-18T04:35:14;18.47;;;13.47;;
15624;SDS011;7912;51.376;6.126;2022-12-18T04:37:41;17.57;;;12.70;;
15624;SDS011;7912;51.376;6.126;2022-12-18T04:40:09;23.27;;;13.63;;
15624;SDS011;7912;51.376;6.126;2022-12-18T04:42:37;20.03;;;13.10;;
15624;SDS011;7912;51.376;6.126;2022-12-18T04:45:07;20.27;;;13.47;;
15624;SDS011;7912;51.376;6.126;2022-12-18T04:47:34;24.33;;;14.07;;
15624;SDS011;7912;51.376;6.126;2022-12-18T04:50:02;19.80;;;12.83;;
15624;SDS011;7912;51.376;6.126;2022-12-18T04:52:29;19.20;;;12.77;;
15624;SDS011;7912;51.376;6.126;2022-12-18T04:54:56;20.17;;;12.73;;
15624;SDS011;7912;51.376;6.126;2022-12-18T04:57:26;21.87;;;13.43;;
15624;SDS011;7912;51.376;6.126;2022-12-18T04:59:53;20.70;;;12.93;;
15624;SDS011;7912;51.376;6.126;2022-12-18T05:02:21;20.73;;;12.87;;
15624;SDS011;7912;51.376;6.126;2022-12-18T05:04:48;20.97;;;13.27;;
15624;SDS011;7912;51.376;6.126;2022-12-18T05:07:15;20.13;;;12.93;;
15624;SDS011;7912;51.376;6.126;2022-12-18T05:09:45;22.67;;;13.40;;
15624;SDS011;7912;51.376;6.126;2022-12-18T05:12:12;21.97;;;13.60;;
15624;SDS011;7912;51.376;6.126;2022-12-18T05:14:40;22.37;;;13.20;;
15624;SDS011;7912;51.376;6.126;2022-12-18T05:17:07;21.53;;;13.63;;
15624;SDS011;7912;51.376;6.126;2022-12-18T05:19:35;20.70;;;13.30;;
15624;SDS011;7912;51.376;6.126;2022-12-18T05:22:02;21.83;;;13.67;;
15624;SDS011;7912;51.376;6.126;2022-12-18T05:24:29;20.07;;;12.97;;
15624;SDS011;7912;51.376;6.126;2022-12-18T05:26:57;20.97;;;13.37;;
15624;SDS011;7912;51.376;6.126;2022-12-18T05:29:27;21.07;;;13.10;;
15624;SDS011;7912;51.376;6.126;2022-12-18T05:31:54;19.87;;;13.87;;
15624;SDS011;7912;51.376;6.126;2022-12-18T05:34:22;20.13;;;13.17;;
15624;SDS011;7912;51.376;6.126;2022-12-18T05:36:49;21.70;;;13.53;;
15624;SDS011;7912;51.376;6.126;2022-12-18T05:39:16;21.30;;;13.60;;
15624;SDS011;7912;51.376;6.126;2022-12-18T05:41:43;19.60;;;13.67;;
15624;SDS011;7912;51.376;6.126;2022-12-18T05:44:11;20.30;;;12.67;;
15624;SDS011;7912;51.376;6.126;2022-12-18T05:46:39;21.20;;;12.63;;
15624;SDS011;7912;51.376;6.126;2022-12-18T05:49:06;19.67;;;13.60;;
15624;SDS011;7912;51.376;6.126;2022-12-18T05:51:33;18.53;;;12.93;;
15624;SDS011;7912;51.376;6.126;2022-12-18T05:54:00;19.23;;;12.73;;
15624;SDS011;7912;51.376;6.126;2022-12-18T05:56:28;21.13;;;13.10;;
15624;SDS011;7912;51.376;6.126;2022-12-18T05:58:55;19.23;;;12.37;;
15624;SDS011;7912;51.376;6.126;2022-12-18T06:01:24;22.90;;;13.47;;
15624;SDS011;7912;51.376;6.126;2022-12-18T06:03:53;23.07;;;13.60;;
15624;SDS011;7912;51.376;6.126;2022-12-18T06:06:22;20.07;;;13.47;;
15624;SDS011;7912;51.376;6.126;2022-12-18T06:08:53;20.37;;;12.40;;
15624;SDS011;7912;51.376;6.126;2022-12-18T06:11:22;20.43;;;12.80;;
15624;SDS011;7912;51.376;6.126;2022-12-18T06:13:52;19.77;;;12.60;;
15624;SDS011;7912;51.376;6.126;2022-12-18T06:16:24;20.20;;;12.63;;
15624;SDS011;7912;51.376;6.126;2022-12-18T06:18:57;20.37;;;13.13;;
15624;SDS011;7912;51.376;6.126;2022-12-18T06:21:26;20.10;;;13.27;;
15624;SDS011;7912;51.376;6.126;2022-12-18T06:23:54;22.47;;;13.30;;
15624;SDS011;7912;51.376;6.126;2022-12-18T06:26:26;19.53;;;12.87;;
15624;SDS011;7912;51.376;6.126;2022-12-18T06:28:56;21.27;;;13.83;;
15624;SDS011;7912;51.376;6.126;2022-12-18T06:31:24;23.73;;;13.87;;
15624;SDS011;7912;51.376;6.126;2022-12-18T06:33:52;20.50;;;13.70;;
15624;SDS011;7912;51.376;6.126;2022-12-18T06:36:20;21.07;;;12.83;;
15624;SDS011;7912;51.376;6.126;2022-12-18T06:38:47;23.07;;;13.80;;
15624;SDS011;7912;51.376;6.126;2022-12-18T06:41:16;20.40;;;13.10;;
15624;SDS011;7912;51.376;6.126;2022-12-18T06:43:45;20.13;;;13.43;;
15624;SDS011;7912;51.376;6.126;2022-12-18T06:46:13;21.67;;;14.47;;
15624;SDS011;7912;51.376;6.126;2022-12-18T06:48:41;22.07;;;13.20;;
15624;SDS011;7912;51.376;6.126;2022-12-18T06:51:08;21.93;;;13.67;;
15624;SDS011;7912;51.376;6.126;2022-12-18T06:53:35;19.73;;;12.57;;
15624;SDS011;7912;51.376;6.126;2022-12-18T06:56:04;20.43;;;13.80;;
15624;SDS011;7912;51.376;6.126;2022-12-18T06:58:36;22.40;;;13.80;;
15624;SDS011;7912;51.376;6.126;2022-12-18T07:01:06;20.27;;;14.00;;
15624;SDS011;7912;51.376;6.126;2022-12-18T07:03:37;20.20;;;13.80;;
15624;SDS011;7912;51.376;6.126;2022-12-18T07:06:12;21.17;;;14.03;;
15624;SDS011;7912;51.376;6.126;2022-12-18T07:08:42;26.57;;;14.90;;
15624;SDS011;7912;51.376;6.126;2022-12-18T07:11:10;26.63;;;15.10;;
15624;SDS011;7912;51.376;6.126;2022-12-18T07:13:37;23.93;;;15.30;;
15624;SDS011;7912;51.376;6.126;2022-12-18T07:16:06;20.10;;;14.07;;
15624;SDS011;7912;51.376;6.126;2022-12-18T07:18:49;23.90;;;14.90;;
15624;SDS011;7912;51.376;6.126;2022-12-18T07:21:18;21.77;;;14.33;;
15624;SDS011;7912;51.376;6.126;2022-12-18T07:23:47;22.60;;;14.57;;
15624;SDS011;7912;51.376;6.126;2022-12-18T07:26:18;23.77;;;15.17;;
15624;SDS011;7912;51.376;6.126;2022-12-18T07:28:47;20.27;;;13.83;;
15624;SDS011;7912;51.376;6.126;2022-12-18T07:31:17;21.43;;;14.07;;
15624;SDS011;7912;51.376;6.126;2022-12-18T07:33:47;22.83;;;14.63;;
15624;SDS011;7912;51.376;6.126;2022-12-18T07:36:16;22.40;;;14.60;;
15624;SDS011;7912;51.376;6.126;2022-12-18T07:38:46;22.43;;;14.60;;
15624;SDS011;7912;51.376;6.126;2022-12-18T07:41:15;21.37;;;14.23;;
15624;SDS011;7912;51.376;6.126;2022-12-18T07:43:43;25.80;;;15.17;;
15624;SDS011;7912;51.376;6.126;2022-12-18T07:46:10;20.93;;;13.93;;
15624;SDS011;7912;51.376;6.126;2022-12-18T07:48:42;22.70;;;14.77;;
15624;SDS011;7912;51.376;6.126;2022-12-18T07:51:15;21.90;;;14.47;;
15624;SDS011;7912;51.376;6.126;2022-12-18T07:53:44;23.83;;;15.27;;
15624;SDS011;7912;51.376;6.126;2022-12-18T07:56:17;21.87;;;15.17;;
15624;SDS011;7912;51.376;6.126;2022-12-18T07:58:55;25.50;;;16.00;;
15624;SDS011;7912;51.376;6.126;2022-12-18T08:01:23;24.57;;;14.53;;
15624;SDS011;7912;51.376;6.126;2022-12-18T08:03:51;23.60;;;14.63;;
15624;SDS011;7912;51.376;6.126;2022-12-18T08:06:18;25.23;;;15.30;;
15624;SDS011;7912;51.376;6.126;2022-12-18T08:08:53;29.30;;;16.23;;
15624;SDS011;7912;51.376;6.126;2022-12-18T08:11:23;23.00;;;14.90;;
15624;SDS011;7912;51.376;6.126;2022-12-18T08:13:52;22.30;;;15.07;;
15624;SDS011;7912;51.376;6.126;2022-12-18T08:16:20;22.27;;;15.63;;
15624;SDS011;7912;51.376;6.126;2022-12-18T08:18:48;24.17;;;15.70;;
15624;SDS011;7912;51.376;6.126;2022-12-18T08:21:19;23.50;;;14.57;;
15624;SDS011;7912;51.376;6.126;2022-12-18T08:23:53;24.23;;;14.97;;
15624;SDS011;7912;51.376;6.126;2022-12-18T08:26:23;24.90;;;16.27;;
15624;SDS011;7912;51.376;6.126;2022-12-18T08:28:54;25.17;;;15.30;;
15624;SDS011;7912;51.376;6.126;2022-12-18T08:31:24;21.73;;;14.40;;
15624;SDS011;7912;51.376;6.126;2022-12-18T08:33:55;24.77;;;15.50;;
15624;SDS011;7912;51.376;6.126;2022-12-18T08:36:23;22.77;;;14.87;;
15624;SDS011;7912;51.376;6.126;2022-12-18T08:38:52;24.10;;;15.30;;
15624;SDS011;7912;51.376;6.126;2022-12-18T08:41:20;24.67;;;14.70;;
15624;SDS011;7912;51.376;6.126;2022-12-18T08:43:47;22.13;;;14.80;;
15624;SDS011;7912;51.376;6.126;2022-12-18T08:46:35;22.57;;;15.00;;
15624;SDS011;7912;51.376;6.126;2022-12-18T08:49:05;21.73;;;14.67;;
15624;SDS011;7912;51.376;6.126;2022-12-18T08:51:34;23.43;;;14.63;;
15624;SDS011;7912;51.376;6.126;2022-12-18T08:54:10;22.03;;;14.27;;
15624;SDS011;7912;51.376;6.126;2022-12-18T08:56:40;22.63;;;14.90;;
15624;SDS011;7912;51.376;6.126;2022-12-18T08:59:07;24.20;;;14.80;;
15624;SDS011;7912;51.376;6.126;2022-12-18T09:01:44;22.67;;;15.07;;
15624;SDS011;7912;51.376;6.126;2022-12-18T09:04:13;22.77;;;14.00;;
15624;SDS011;7912;51.376;6.126;2022-12-18T09:06:41;23.47;;;16.33;;
15624;SDS011;7912;51.376;6.126;2022-12-18T09:09:09;22.17;;;15.03;;
15624;SDS011;7912;51.376;6.126;2022-12-18T09:11:37;23.20;;;15.30;;
15624;SDS011;7912;51.376;6.126;2022-12-18T09:14:05;21.30;;;14.63;;
15624;SDS011;7912;51.376;6.126;2022-12-18T09:16:33;24.53;;;15.53;;
15624;SDS011;7912;51.376;6.126;2022-12-18T09:19:02;21.23;;;14.17;;
15624;SDS011;7912;51.376;6.126;2022-12-18T09:21:31;24.40;;;14.50;;
15624;SDS011;7912;51.376;6.126;2022-12-18T09:24:02;22.27;;;14.23;;
15624;SDS011;7912;51.376;6.126;2022-12-18T09:26:34;22.97;;;14.93;;
15624;SDS011;7912;51.376;6.126;2022-12-18T09:29:02;24.90;;;15.87;;
15624;SDS011;7912;51.376;6.126;2022-12-18T09:31:30;21.40;;;14.50;;
15624;SDS011;7912;51.376;6.126;2022-12-18T09:33:58;21.47;;;13.97;;
15624;SDS011;7912;51.376;6.126;2022-12-18T09:36:25;21.87;;;14.90;;
15624;SDS011;7912;51.376;6.126;2022-12-18T09:38:53;20.20;;;14.37;;
15624;SDS011;7912;51.376;6.126;2022-12-18T09:41:37;22.77;;;14.73;;
15624;SDS011;7912;51.376;6.126;2022-12-18T09:44:36;21.10;;;14.20;;
15624;SDS011;7912;51.376;6.126;2022-12-18T09:49:53;19.37;;;13.67;;
15624;SDS011;7912;51.376;6.126;2022-12-18T09:52:27;21.73;;;14.20;;
15624;SDS011;7912;51.376;6.126;2022-12-18T09:55:05;19.03;;;13.73;;
15624;SDS011;7912;51.376;6.126;2022-12-18T09:58:02;21.37;;;14.03;;
15624;SDS011;7912;51.376;6.126;2022-12-18T10:00:39;21.50;;;14.23;;
15624;SDS011;7912;51.376;6.126;2022-12-18T10:03:14;19.43;;;13.93;;
15624;SDS011;7912;51.376;6.126;2022-12-18T10:08:33;20.80;;;14.30;;
15624;SDS011;7912;51.376;6.126;2022-12-18T10:11:19;20.53;;;13.77;;
15624;SDS011;7912;51.376;6.126;2022-12-18T10:14:04;22.20;;;13.87;;
15624;SDS011;7912;51.376;6.126;2022-12-18T10:20:02;20.07;;;13.93;;
15624;SDS011;7912;51.376;6.126;2022-12-18T10:28:22;21.57;;;14.20;;
15624;SDS011;7912;51.376;6.126;2022-12-18T10:30:50;21.37;;;13.73;;
15624;SDS011;7912;51.376;6.126;2022-12-18T10:33:20;18.07;;;13.23;;
15624;SDS011;7912;51.376;6.126;2022-12-18T10:35:50;21.03;;;14.37;;
15624;SDS011;7912;51.376;6.126;2022-12-18T10:41:00;19.77;;;13.87;;
15624;SDS011;7912;51.376;6.126;2022-12-18T10:43:38;20.27;;;14.63;;
15624;SDS011;7912;51.376;6.126;2022-12-18T10:48:36;18.50;;;13.57;;
15624;SDS011;7912;51.376;6.126;2022-12-18T10:51:24;22.20;;;14.37;;
15624;SDS011;7912;51.376;6.126;2022-12-18T10:54:13;22.07;;;14.93;;
15624;SDS011;7912;51.376;6.126;2022-12-18T10:56:47;21.27;;;14.23;;
15624;SDS011;7912;51.376;6.126;2022-12-18T10:59:15;20.93;;;14.33;;
15624;SDS011;7912;51.376;6.126;2022-12-18T11:01:45;19.93;;;14.07;;
15624;SDS011;7912;51.376;6.126;2022-12-18T11:04:20;18.30;;;13.50;;
15624;SDS011;7912;51.376;6.126;2022-12-18T11:06:58;19.80;;;14.77;;
15624;SDS011;7912;51.376;6.126;2022-12-18T11:09:34;21.53;;;14.90;;
15624;SDS011;7912;51.376;6.126;2022-12-18T11:12:24;22.27;;;14.80;;
15624;SDS011;7912;51.376;6.126;2022-12-18T11:14:52;21.10;;;14.37;;
15624;SDS011;7912;51.376;6.126;2022-12-18T11:17:33;20.87;;;14.63;;
15624;SDS011;7912;51.376;6.126;2022-12-18T11:20:04;21.20;;;14.67;;
15624;SDS011;7912;51.376;6.126;2022-12-18T11:22:54;19.53;;;13.87;;
15624;SDS011;7912;51.376;6.126;2022-12-18T11:25:25;19.10;;;14.60;;
15624;SDS011;7912;51.376;6.126;2022-12-18T11:28:24;20.63;;;14.27;;
15624;SDS011;7912;51.376;6.126;2022-12-18T11:36:56;19.23;;;14.40;;
15624;SDS011;7912;51.376;6.126;2022-12-18T11:39:34;20.53;;;14.53;;
15624;SDS011;7912;51.376;6.126;2022-12-18T11:42:27;21.70;;;15.20;;
15624;SDS011;7912;51.376;6.126;2022-12-18T11:53:20;21.00;;;13.73;;
15624;SDS011;7912;51.376;6.126;2022-12-18T11:58:42;19.97;;;14.63;;
15624;SDS011;7912;51.376;6.126;2022-12-18T12:01:52;20.70;;;13.83;;
15624;SDS011;7912;51.376;6.126;2022-12-18T12:10:28;21.77;;;14.70;;
15624;SDS011;7912;51.376;6.126;2022-12-18T12:13:08;20.10;;;14.03;;
15624;SDS011;7912;51.376;6.126;2022-12-18T12:22:20;23.37;;;15.70;;
15624;SDS011;7912;51.376;6.126;2022-12-18T12:28:09;20.43;;;14.43;;
15624;SDS011;7912;51.376;6.126;2022-12-18T12:34:17;25.30;;;17.63;;
15624;SDS011;7912;51.376;6.126;2022-12-18T12:37:11;26.47;;;16.93;;
15624;SDS011;7912;51.376;6.126;2022-12-18T12:40:06;34.70;;;19.10;;
15624;SDS011;7912;51.376;6.126;2022-12-18T12:43:12;36.93;;;20.87;;
15624;SDS011;7912;51.376;6.126;2022-12-18T12:51:29;24.70;;;16.27;;
15624;SDS011;7912;51.376;6.126;2022-12-18T12:54:11;28.70;;;19.20;;
15624;SDS011;7912;51.376;6.126;2022-12-18T13:02:35;25.27;;;16.73;;
15624;SDS011;7912;51.376;6.126;2022-12-18T13:08:23;22.03;;;15.57;;
15624;SDS011;7912;51.376;6.126;2022-12-18T13:10:57;25.10;;;16.70;;
15624;SDS011;7912;51.376;6.126;2022-12-18T13:13:51;21.87;;;16.00;;
15624;SDS011;7912;51.376;6.126;2022-12-18T13:16:23;23.30;;;16.13;;
15624;SDS011;7912;51.376;6.126;2022-12-18T13:18:54;23.60;;;16.07;;
15624;SDS011;7912;51.376;6.126;2022-12-18T13:24:08;25.30;;;16.80;;
15624;SDS011;7912;51.376;6.126;2022-12-18T13:26:54;22.67;;;15.80;;
15624;SDS011;7912;51.376;6.126;2022-12-18T13:32:19;23.63;;;16.27;;
15624;SDS011;7912;51.376;6.126;2022-12-18T13:37:50;23.00;;;15.97;;
15624;SDS011;7912;51.376;6.126;2022-12-18T13:45:59;20.50;;;14.23;;
15624;SDS011;7912;51.376;6.126;2022-12-18T13:48:37;23.67;;;16.80;;
15624;SDS011;7912;51.376;6.126;2022-12-18T13:51:06;21.63;;;16.17;;
15624;SDS011;7912;51.376;6.126;2022-12-18T13:56:49;24.10;;;16.23;;
15624;SDS011;7912;51.376;6.126;2022-12-18T14:02:19;22.17;;;15.97;;
15624;SDS011;7912;51.376;6.126;2022-12-18T14:04:50;22.30;;;16.00;;
15624;SDS011;7912;51.376;6.126;2022-12-18T14:07:26;22.33;;;16.33;;
15624;SDS011;7912;51.376;6.126;2022-12-18T14:10:11;21.67;;;15.70;;
15624;SDS011;7912;51.376;6.126;2022-12-18T14:13:03;24.07;;;16.53;;
15624;SDS011;7912;51.376;6.126;2022-12-18T14:15:41;22.43;;;16.20;;
15624;SDS011;7912;51.376;6.126;2022-12-18T14:21:18;21.80;;;16.20;;
15624;SDS011;7912;51.376;6.126;2022-12-18T14:24:13;20.60;;;15.67;;
15624;SDS011;7912;51.376;6.126;2022-12-18T14:26:45;21.43;;;15.90;;
15624;SDS011;7912;51.376;6.126;2022-12-18T14:29:29;23.10;;;15.70;;
15624;SDS011;7912;51.376;6.126;2022-12-18T14:32:04;22.77;;;15.60;;
15624;SDS011;7912;51.376;6.126;2022-12-18T14:34:53;21.87;;;15.97;;
15624;SDS011;7912;51.376;6.126;2022-12-18T14:37:24;24.67;;;16.00;;
15624;SDS011;7912;51.376;6.126;2022-12-18T14:42:35;24.70;;;17.23;;
15624;SDS011;7912;51.376;6.126;2022-12-18T14:48:20;27.70;;;17.23;;
15624;SDS011;7912;51.376;6.126;2022-12-18T14:53:45;24.97;;;16.33;;
15624;SDS011;7912;51.376;6.126;2022-12-18T14:56:24;26.23;;;17.30;;
15624;SDS011;7912;51.376;6.126;2022-12-18T14:58:58;25.33;;;17.23;;
15624;SDS011;7912;51.376;6.126;2022-12-18T15:05:02;24.57;;;17.27;;
15624;SDS011;7912;51.376;6.126;2022-12-18T15:08:24;23.93;;;16.93;;
15624;SDS011;7912;51.376;6.126;2022-12-18T15:11:02;24.43;;;17.10;;
15624;SDS011;7912;51.376;6.126;2022-12-18T15:13:36;22.83;;;16.03;;
15624;SDS011;7912;51.376;6.126;2022-12-18T15:16:05;26.10;;;17.73;;
15624;SDS011;7912;51.376;6.126;2022-12-18T15:18:41;25.17;;;17.47;;
15624;SDS011;7912;51.376;6.126;2022-12-18T15:21:11;23.67;;;16.77;;
15624;SDS011;7912;51.376;6.126;2022-12-18T15:23:48;24.30;;;17.03;;
15624;SDS011;7912;51.376;6.126;2022-12-18T15:26:19;24.17;;;17.27;;
15624;SDS011;7912;51.376;6.126;2022-12-18T15:28:52;25.47;;;16.87;;
15624;SDS011;7912;51.376;6.126;2022-12-18T15:34:10;24.97;;;17.73;;
15624;SDS011;7912;51.376;6.126;2022-12-18T15:36:47;26.27;;;18.53;;
15624;SDS011;7912;51.376;6.126;2022-12-18T15:39:17;28.63;;;18.73;;
15624;SDS011;7912;51.376;6.126;2022-12-18T15:41:47;26.93;;;17.77;;
15624;SDS011;7912;51.376;6.126;2022-12-18T15:44:36;27.53;;;17.57;;
15624;SDS011;7912;51.376;6.126;2022-12-18T15:47:09;28.30;;;18.30;;
15624;SDS011;7912;51.376;6.126;2022-12-18T15:49:39;26.33;;;17.83;;
15624;SDS011;7912;51.376;6.126;2022-12-18T15:52:09;26.20;;;17.47;;
15624;SDS011;7912;51.376;6.126;2022-12-18T15:54:40;24.57;;;17.83;;
15624;SDS011;7912;51.376;6.126;2022-12-18T15:57:26;27.10;;;18.50;;
15624;SDS011;7912;51.376;6.126;2022-12-18T15:59:55;26.30;;;17.53;;
15624;SDS011;7912;51.376;6.126;2022-12-18T16:02:24;28.57;;;18.40;;
15624;SDS011;7912;51.376;6.126;2022-12-18T16:04:54;27.63;;;18.97;;
15624;SDS011;7912;51.376;6.126;2022-12-18T16:07:23;26.77;;;18.70;;
15624;SDS011;7912;51.376;6.126;2022-12-18T16:09:55;25.97;;;17.30;;
15624;SDS011;7912;51.376;6.126;2022-12-18T16:12:26;25.53;;;18.77;;
15624;SDS011;7912;51.376;6.126;2022-12-18T16:14:53;28.23;;;19.53;;
15624;SDS011;7912;51.376;6.126;2022-12-18T16:17:21;28.20;;;19.37;;
15624;SDS011;7912;51.376;6.126;2022-12-18T16:19:48;28.20;;;19.20;;
15624;SDS011;7912;51.376;6.126;2022-12-18T16:22:18;28.03;;;19.00;;
15624;SDS011;7912;51.376;6.126;2022-12-18T16:24:51;29.23;;;18.53;;
15624;SDS011;7912;51.376;6.126;2022-12-18T16:27:21;23.27;;;16.90;;
15624;SDS011;7912;51.376;6.126;2022-12-18T16:29:50;25.67;;;17.77;;
15624;SDS011;7912;51.376;6.126;2022-12-18T16:32:18;26.37;;;17.83;;
15624;SDS011;7912;51.376;6.126;2022-12-18T16:34:48;24.97;;;17.47;;
15624;SDS011;7912;51.376;6.126;2022-12-18T16:37:16;29.40;;;18.43;;
15624;SDS011;7912;51.376;6.126;2022-12-18T16:39:43;24.53;;;17.87;;
15624;SDS011;7912;51.376;6.126;2022-12-18T16:44:46;24.97;;;18.27;;
15624;SDS011;7912;51.376;6.126;2022-12-18T16:47:15;23.93;;;17.77;;
15624;SDS011;7912;51.376;6.126;2022-12-18T16:52:48;26.20;;;17.53;;
15624;SDS011;7912;51.376;6.126;2022-12-18T16:55:18;26.53;;;18.50;;
15624;SDS011;7912;51.376;6.126;2022-12-18T16:57:48;25.50;;;18.30;;
15624;SDS011;7912;51.376;6.126;2022-12-18T17:00:18;27.23;;;18.43;;
15624;SDS011;7912;51.376;6.126;2022-12-18T17:02:46;27.80;;;18.73;;
15624;SDS011;7912;51.376;6.126;2022-12-18T17:05:13;26.23;;;17.90;;
15624;SDS011;7912;51.376;6.126;2022-12-18T17:07:41;27.83;;;17.90;;
15624;SDS011;7912;51.376;6.126;2022-12-18T17:10:10;27.37;;;17.70;;
15624;SDS011;7912;51.376;6.126;2022-12-18T17:12:37;27.90;;;19.13;;
15624;SDS011;7912;51.376;6.126;2022-12-18T17:15:05;25.93;;;17.57;;
15624;SDS011;7912;51.376;6.126;2022-12-18T17:17:33;25.63;;;18.00;;
15624;SDS011;7912;51.376;6.126;2022-12-18T17:20:02;33.17;;;18.37;;
15624;SDS011;7912;51.376;6.126;2022-12-18T17:22:29;27.17;;;19.30;;
15624;SDS011;7912;51.376;6.126;2022-12-18T17:24:56;27.03;;;18.03;;
15624;SDS011;7912;51.376;6.126;2022-12-18T17:27:24;23.40;;;17.53;;
15624;SDS011;7912;51.376;6.126;2022-12-18T17:29:54;25.93;;;18.43;;
15624;SDS011;7912;51.376;6.126;2022-12-18T17:32:21;27.63;;;18.33;;
15624;SDS011;7912;51.376;6.126;2022-12-18T17:34:49;30.23;;;21.30;;